createdAt,value
2023-04-17T00:01:44.811Z,97910.06
2023-04-17T00:04:13.058Z,97912.25
2023-04-17T00:06:43.191Z,97903.59
2023-04-17T00:09:10.912Z,97905.75
2023-04-17T00:11:39.930Z,97898.13
2023-04-17T00:14:07.507Z,97911.56
2023-04-17T00:16:35.059Z,97908.75
2023-04-17T00:19:02.574Z,97911.91
2023-04-17T00:21:31.940Z,97906.13
2023-04-17T00:23:59.636Z,97901.81
2023-04-17T00:26:27.148Z,97908.59
2023-04-17T00:28:56.266Z,97907.94
2023-04-17T00:31:23.841Z,97898.81
2023-04-17T00:33:51.429Z,97901.31
2023-04-17T00:36:18.936Z,97900.63
2023-04-17T00:38:46.562Z,97892.16
2023-04-17T00:41:14.091Z,97894.31
2023-04-17T00:43:41.574Z,97899.81
2023-04-17T00:46:11.063Z,97900.81
2023-04-17T00:48:38.754Z,97898.31
2023-04-17T00:51:06.783Z,97898.81
2023-04-17T00:53:34.380Z,97896.50
2023-04-17T00:56:02.524Z,97901.13
2023-04-17T00:58:30.026Z,97893.16
2023-04-17T01:00:57.910Z,97896.00
2023-04-17T01:03:29.610Z,97898.97
2023-04-17T01:05:57.303Z,97895.47
2023-04-17T01:08:24.964Z,97893.50
2023-04-17T01:10:52.927Z,97895.31
2023-04-17T01:13:21.340Z,97895.69
2023-04-17T01:15:50.112Z,97896.31
2023-04-17T01:18:18.073Z,97897.81
2023-04-17T01:20:47.535Z,97901.97
2023-04-17T01:23:16.601Z,97899.28
2023-04-17T01:25:47.191Z,97905.28
2023-04-17T01:28:14.760Z,97900.31
2023-04-17T01:30:42.323Z,97903.16
2023-04-17T01:33:11.048Z,97902.47
2023-04-17T01:35:38.556Z,97907.13
2023-04-17T01:38:06.086Z,97903.63
2023-04-17T01:40:33.577Z,97905.31
2023-04-17T01:43:02.399Z,97905.16
2023-04-17T01:45:29.952Z,97904.31
2023-04-17T01:47:57.704Z,97899.69
2023-04-17T01:50:25.234Z,97912.78
2023-04-17T01:52:52.903Z,97908.28
2023-04-17T01:55:20.430Z,97912.97
2023-04-17T01:57:49.870Z,97911.28
2023-04-17T02:00:19.645Z,97905.81
2023-04-17T02:02:47.292Z,97906.47
2023-04-17T02:05:14.916Z,97907.47
2023-04-17T02:07:44.727Z,97908.47
2023-04-17T02:10:12.469Z,97910.97
2023-04-17T02:12:39.948Z,97908.13
2023-04-17T02:15:08.664Z,97918.59
2023-04-17T02:17:37.536Z,97914.13
2023-04-17T02:20:07.400Z,97916.78
2023-04-17T02:22:34.910Z,97917.94
2023-04-17T02:25:02.484Z,97922.75
2023-04-17T02:27:31.121Z,97925.56
2023-04-17T02:29:58.621Z,97923.41
2023-04-17T02:32:26.582Z,97916.13
2023-04-17T02:34:56.155Z,97917.63
2023-04-17T02:37:23.824Z,97920.09
2023-04-17T02:39:53.280Z,97919.75
2023-04-17T02:42:20.767Z,97923.59
2023-04-17T02:44:48.280Z,97920.28
2023-04-17T02:47:15.915Z,97920.56
2023-04-17T02:49:43.402Z,97921.56
2023-04-17T02:52:12.229Z,97918.59
2023-04-17T02:54:39.724Z,97915.94
2023-04-17T02:57:08.682Z,97919.91
2023-04-17T02:59:36.196Z,97920.25
2023-04-17T03:02:04.504Z,97924.56
2023-04-17T03:04:34.467Z,97919.94
2023-04-17T03:07:01.970Z,97923.88
2023-04-17T03:09:30.958Z,97920.94
2023-04-17T03:11:58.461Z,97922.59
2023-04-17T03:14:25.982Z,97919.28
2023-04-17T03:16:53.591Z,97917.94
2023-04-17T03:19:21.432Z,97927.56
2023-04-17T03:21:48.943Z,97921.75
2023-04-17T03:24:16.527Z,97922.25
2023-04-17T03:26:45.386Z,97928.88
2023-04-17T03:29:18.276Z,97933.03
2023-04-17T03:31:45.837Z,97931.69
2023-04-17T03:34:13.488Z,97924.25
2023-04-17T03:36:42.164Z,97932.53
2023-04-17T03:39:10.223Z,97927.38
2023-04-17T03:41:38.748Z,97928.72
2023-04-17T03:44:08.746Z,97934.88
2023-04-17T03:46:36.604Z,97931.38
2023-04-17T03:49:04.132Z,97936.38
2023-04-17T03:51:32.324Z,97931.22
2023-04-17T03:54:07.771Z,97939.34
2023-04-17T03:56:35.394Z,97935.84
2023-04-17T03:59:04.143Z,97930.91
2023-04-17T04:01:38.593Z,97939.03
2023-04-17T04:04:14.779Z,97941.53
2023-04-17T04:06:43.284Z,97943.16
2023-04-17T04:09:15.131Z,97945.66
2023-04-17T04:11:43.460Z,97948.47
2023-04-17T04:14:11.330Z,97948.47
2023-04-17T04:16:40.887Z,97944.81
2023-04-17T04:19:12.044Z,97945.81
2023-04-17T04:21:39.932Z,97950.13
2023-04-17T04:24:13.223Z,97947.97
2023-04-17T04:26:43.118Z,97949.50
2023-04-17T04:29:11.787Z,97949.81
2023-04-17T04:32:09.726Z,97951.94
2023-04-17T04:34:42.082Z,97950.47
2023-04-17T04:37:09.661Z,97947.47
2023-04-17T04:39:40.368Z,97955.28
2023-04-17T04:42:10.779Z,97946.16
2023-04-17T04:44:50.257Z,97945.66
2023-04-17T04:47:22.739Z,97954.59
2023-04-17T04:49:51.069Z,97960.25
2023-04-17T04:52:21.457Z,97960.75
2023-04-17T04:54:50.663Z,97960.25
2023-04-17T04:57:18.237Z,97961.75
2023-04-17T04:59:48.000Z,97963.06
2023-04-17T05:02:38.265Z,97965.41
2023-04-17T05:05:10.953Z,97963.91
2023-04-17T05:07:38.507Z,97970.72
2023-04-17T05:10:10.314Z,97969.88
2023-04-17T05:12:43.109Z,97970.72
2023-04-17T05:15:12.472Z,97972.53
2023-04-17T05:17:41.860Z,97980.00
2023-04-17T05:20:10.496Z,97989.78
2023-04-17T05:22:45.559Z,97982.19
2023-04-17T05:25:14.221Z,97988.28
2023-04-17T05:27:42.127Z,97991.63
2023-04-17T05:30:13.065Z,97992.13
2023-04-17T05:32:43.491Z,97985.31
2023-04-17T05:35:31.292Z,97989.28
2023-04-17T05:37:59.846Z,97989.94
2023-04-17T05:40:27.358Z,97999.09
2023-04-17T05:42:55.461Z,97988.97
2023-04-17T05:45:25.446Z,97994.44
2023-04-17T05:47:54.744Z,98001.75
2023-04-17T05:50:22.289Z,98003.06
2023-04-17T05:52:49.791Z,97997.28
2023-04-17T05:55:20.083Z,98000.09
2023-04-17T05:57:49.860Z,98002.56
2023-04-17T06:00:17.840Z,98002.75
2023-04-17T06:02:52.236Z,97999.25
2023-04-17T06:05:31.291Z,98005.91
2023-04-17T06:07:58.919Z,97993.44
2023-04-17T06:10:26.967Z,97999.25
2023-04-17T06:12:54.560Z,98007.91
2023-04-17T06:15:22.600Z,98004.06
2023-04-17T06:17:50.698Z,98008.88
2023-04-17T06:20:18.920Z,98003.41
2023-04-17T06:22:47.790Z,98005.09
2023-04-17T06:25:16.975Z,98011.88
2023-04-17T06:27:46.432Z,98013.69
2023-04-17T06:30:14.442Z,98013.53
2023-04-17T06:32:50.424Z,98018.84
2023-04-17T06:35:20.243Z,98019.84
2023-04-17T06:37:54.162Z,98014.69
2023-04-17T06:40:21.889Z,98012.19
2023-04-17T06:42:49.672Z,98008.69
2023-04-17T06:45:21.815Z,98020.16
2023-04-17T06:47:49.424Z,98017.50
2023-04-17T06:50:18.388Z,98020.34
2023-04-17T06:52:46.004Z,98022.16
2023-04-17T06:55:14.809Z,98017.16
2023-04-17T06:57:42.374Z,98026.78
2023-04-17T07:00:11.175Z,98031.09
2023-04-17T07:02:38.740Z,98035.75
2023-04-17T07:05:07.424Z,98034.41
2023-04-17T07:07:35.956Z,98037.06
2023-04-17T07:10:03.955Z,98037.59
2023-04-17T07:12:32.891Z,98041.38
2023-04-17T07:15:00.755Z,98038.25
2023-04-17T07:17:28.372Z,98043.72
2023-04-17T07:19:56.059Z,98044.72
2023-04-17T07:22:25.253Z,98044.56
2023-04-17T07:24:54.193Z,98052.00
2023-04-17T07:27:21.819Z,98041.75
2023-04-17T07:29:54.827Z,98049.03
2023-04-17T07:32:24.152Z,98049.88
2023-04-17T07:34:52.065Z,98055.19
2023-04-17T07:37:20.133Z,98059.16
2023-04-17T07:39:49.999Z,98069.47
2023-04-17T07:42:17.576Z,98061.50
2023-04-17T07:44:45.103Z,98067.31
2023-04-17T07:47:13.971Z,98070.94
2023-04-17T07:49:41.623Z,98065.78
2023-04-17T07:52:09.365Z,98065.63
2023-04-17T07:54:36.893Z,98068.16
2023-04-17T07:57:04.470Z,98067.16
2023-04-17T07:59:31.980Z,98069.97
2023-04-17T08:01:59.774Z,98072.16
2023-04-17T08:04:28.976Z,98073.97
2023-04-17T08:06:56.549Z,98079.13
2023-04-17T08:09:24.073Z,98076.13
2023-04-17T08:11:57.422Z,98079.13
2023-04-17T08:14:25.576Z,98078.97
2023-04-17T08:16:53.316Z,98080.66
2023-04-17T08:19:20.894Z,98084.97
2023-04-17T08:21:49.909Z,98091.44
2023-04-17T08:24:19.707Z,98089.09
2023-04-17T08:26:48.152Z,98090.44
2023-04-17T08:29:15.855Z,98087.94
2023-04-17T08:31:43.505Z,98088.25
2023-04-17T08:34:14.989Z,98097.56
2023-04-17T08:36:43.005Z,98098.41
2023-04-17T08:39:12.354Z,98099.38
2023-04-17T08:41:45.196Z,98102.88
2023-04-17T08:44:12.772Z,98105.03
2023-04-17T08:46:40.722Z,98100.72
2023-04-17T08:49:08.353Z,98098.88
2023-04-17T08:51:36.086Z,98100.88
2023-04-17T08:54:03.603Z,98106.38
2023-04-17T08:56:32.422Z,98110.72
2023-04-17T08:58:59.899Z,98104.41
2023-04-17T09:01:29.488Z,98107.72
2023-04-17T09:03:58.063Z,98107.72
2023-04-17T09:06:25.762Z,98108.88
2023-04-17T09:08:57.796Z,98110.38
2023-04-17T09:11:25.991Z,98114.03
2023-04-17T09:13:55.005Z,98109.22
2023-04-17T09:16:24.773Z,98117.22
2023-04-17T09:18:52.392Z,98117.53
2023-04-17T09:21:20.090Z,98115.88
2023-04-17T09:23:49.817Z,98115.97
2023-04-17T09:26:19.143Z,98113.00
2023-04-17T09:29:04.998Z,98111.84
2023-04-17T09:31:34.411Z,98114.50
2023-04-17T09:34:03.224Z,98120.50
2023-04-17T09:36:31.933Z,98119.97
2023-04-17T09:39:00.981Z,98127.78
2023-04-17T09:41:30.014Z,98121.66
2023-04-17T09:44:01.971Z,98130.13
2023-04-17T09:46:35.604Z,98131.13
2023-04-17T09:49:04.172Z,98133.44
2023-04-17T09:51:31.988Z,98132.78
2023-04-17T09:54:00.509Z,98130.31
2023-04-17T09:56:29.603Z,98134.09
2023-04-17T09:58:59.054Z,98137.44
2023-04-17T10:01:27.525Z,98138.13
2023-04-17T10:03:57.009Z,98133.63
2023-04-17T10:06:24.970Z,98136.78
2023-04-17T10:08:52.510Z,98142.28
2023-04-17T10:11:21.066Z,98136.44
2023-04-17T10:13:54.023Z,98141.25
2023-04-17T10:16:34.744Z,98136.44
2023-04-17T10:19:29.455Z,98139.44
2023-04-17T10:22:32.682Z,98134.78
2023-04-17T10:25:18.379Z,98133.47
2023-04-17T10:27:48.457Z,98136.13
2023-04-17T10:30:16.317Z,98142.59
2023-04-17T10:32:46.150Z,98139.63
2023-04-17T10:35:36.582Z,98139.78
2023-04-17T10:38:06.101Z,98132.63
2023-04-17T10:40:35.036Z,98131.28
2023-04-17T10:43:04.212Z,98136.97
2023-04-17T10:45:54.434Z,98137.59
2023-04-17T10:48:23.220Z,98137.75
2023-04-17T10:50:52.075Z,98137.75
2023-04-17T10:53:44.201Z,98139.25
2023-04-17T10:56:12.673Z,98130.44
2023-04-17T10:58:56.565Z,98127.47
2023-04-17T11:01:27.582Z,98136.44
2023-04-17T11:03:56.570Z,98142.06
2023-04-17T11:06:28.056Z,98136.59
2023-04-17T11:08:57.365Z,98141.06
2023-04-17T11:11:35.302Z,98142.53
2023-04-17T11:14:14.580Z,98136.59
2023-04-17T11:16:43.523Z,98144.72
2023-04-17T11:19:13.009Z,98150.41
2023-04-17T11:21:43.506Z,98144.41
2023-04-17T11:24:11.160Z,98149.22
2023-04-17T11:26:43.284Z,98153.84
2023-04-17T11:29:15.046Z,98152.19
2023-04-17T11:31:42.606Z,98153.66
2023-04-17T11:34:11.164Z,98148.00
2023-04-17T11:36:38.691Z,98153.31
2023-04-17T11:39:08.284Z,98147.00
2023-04-17T11:41:39.382Z,98152.00
2023-04-17T11:44:09.426Z,98144.03
2023-04-17T11:46:36.989Z,98153.50
2023-04-17T11:49:05.159Z,98151.47
2023-04-17T11:51:33.161Z,98145.88
2023-04-17T11:54:00.984Z,98152.00
2023-04-17T11:56:30.157Z,98147.16
2023-04-17T11:58:58.536Z,98161.94
2023-04-17T12:01:27.440Z,98158.63
2023-04-17T12:03:55.765Z,98149.81
2023-04-17T12:06:24.200Z,98147.00
2023-04-17T12:08:53.354Z,98148.66
2023-04-17T12:11:26.034Z,98148.34
2023-04-17T12:13:55.646Z,98153.97
2023-04-17T12:16:24.645Z,98159.28
2023-04-17T12:18:52.267Z,98156.16
2023-04-17T12:21:20.412Z,98154.34
2023-04-17T12:23:48.145Z,98157.84
2023-04-17T12:26:15.643Z,98154.69
2023-04-17T12:28:43.499Z,98161.50
2023-04-17T12:31:12.757Z,98163.81
2023-04-17T12:33:40.484Z,98164.00
2023-04-17T12:36:08.977Z,98170.78
2023-04-17T12:38:36.963Z,98163.63
2023-04-17T12:41:04.481Z,98164.09
2023-04-17T12:43:32.541Z,98159.44
2023-04-17T12:46:00.264Z,98164.09
2023-04-17T12:48:31.434Z,98162.59
2023-04-17T12:51:00.215Z,98157.91
2023-04-17T12:53:27.686Z,98155.78
2023-04-17T12:55:55.279Z,98152.63
2023-04-17T12:58:22.749Z,98153.66
2023-04-17T13:00:50.349Z,98152.16
2023-04-17T13:03:18.036Z,98161.16
2023-04-17T13:05:46.986Z,98158.03
2023-04-17T13:08:16.314Z,98159.19
2023-04-17T13:10:43.839Z,98154.69
2023-04-17T13:13:13.032Z,98164.31
2023-04-17T13:15:40.694Z,98160.16
2023-04-17T13:18:10.486Z,98163.47
2023-04-17T13:20:38.223Z,98157.66
2023-04-17T13:23:07.173Z,98164.63
2023-04-17T13:25:34.822Z,98161.81
2023-04-17T13:28:02.404Z,98159.00
2023-04-17T13:30:29.925Z,98159.81
2023-04-17T13:32:57.454Z,98163.31
2023-04-17T13:35:25.084Z,98156.50
2023-04-17T13:37:52.599Z,98154.22
2023-04-17T13:40:21.424Z,98154.38
2023-04-17T13:42:48.895Z,98158.84
2023-04-17T13:45:16.417Z,98157.03
2023-04-17T13:47:44.578Z,98149.56
2023-04-17T13:50:12.135Z,98156.56
2023-04-17T13:52:39.612Z,98149.75
2023-04-17T13:55:11.796Z,98148.44
2023-04-17T13:57:40.689Z,98148.59
2023-04-17T14:00:10.620Z,98145.63
2023-04-17T14:02:38.305Z,98141.44
2023-04-17T14:05:06.818Z,98145.94
2023-04-17T14:07:34.434Z,98143.44
2023-04-17T14:10:01.939Z,98146.09
2023-04-17T14:12:29.410Z,98147.41
2023-04-17T14:14:58.389Z,98150.41
2023-04-17T14:17:26.108Z,98151.56
2023-04-17T14:19:53.898Z,98153.75
2023-04-17T14:22:21.433Z,98155.56
2023-04-17T14:24:48.918Z,98151.09
2023-04-17T14:27:16.448Z,98153.41
2023-04-17T14:29:43.942Z,98145.75
2023-04-17T14:32:12.717Z,98152.72
2023-04-17T14:34:40.215Z,98147.91
2023-04-17T14:37:07.717Z,98146.59
2023-04-17T14:39:35.250Z,98150.94
2023-04-17T14:42:05.639Z,98151.91
2023-04-17T14:44:33.123Z,98153.59
2023-04-17T14:47:00.658Z,98158.72
2023-04-17T14:49:29.894Z,98152.06
2023-04-17T14:51:57.458Z,98152.25
2023-04-17T14:54:25.005Z,98151.88
2023-04-17T14:56:53.594Z,98145.75
2023-04-17T14:59:21.197Z,98156.03
2023-04-17T15:01:48.878Z,98153.38
2023-04-17T15:04:16.986Z,98150.06
2023-04-17T15:06:45.827Z,98154.72
2023-04-17T15:09:13.749Z,98155.72
2023-04-17T15:11:41.386Z,98152.72
2023-04-17T15:14:08.860Z,98156.34
2023-04-17T15:16:36.388Z,98154.22
2023-04-17T15:19:03.936Z,98159.69
2023-04-17T15:21:31.448Z,98157.69
2023-04-17T15:24:00.318Z,98166.97
2023-04-17T15:26:28.164Z,98157.47
2023-04-17T15:28:55.689Z,98158.63
2023-04-17T15:31:23.219Z,98152.69
2023-04-17T15:33:50.730Z,98155.19
2023-04-17T15:36:18.242Z,98152.69
2023-04-17T15:38:45.826Z,98147.69
2023-04-17T15:41:14.802Z,98153.53
2023-04-17T15:43:42.322Z,98149.38
2023-04-17T15:46:10.002Z,98148.69
2023-04-17T15:48:37.531Z,98152.34
2023-04-17T15:51:05.472Z,98155.34
2023-04-17T15:53:33.358Z,98156.66
2023-04-17T15:56:01.305Z,98156.66
2023-04-17T15:58:30.243Z,98152.53
2023-04-17T16:00:57.732Z,98151.03
2023-04-17T16:03:25.337Z,98160.66
2023-04-17T16:05:54.154Z,98150.56
2023-04-17T16:08:21.685Z,98157.19
2023-04-17T16:10:49.167Z,98167.34
2023-04-17T16:13:16.873Z,98160.00
2023-04-17T16:15:46.070Z,98167.81
2023-04-17T16:18:13.556Z,98167.81
2023-04-17T16:20:41.043Z,98168.63
2023-04-17T16:23:08.573Z,98172.59
2023-04-17T16:25:36.406Z,98177.75
2023-04-17T16:28:03.972Z,98171.47
2023-04-17T16:30:31.503Z,98168.78
2023-04-17T16:33:00.341Z,98171.47
2023-04-17T16:35:29.773Z,98168.63
2023-04-17T16:37:57.303Z,98176.78
2023-04-17T16:40:26.528Z,98170.78
2023-04-17T16:42:54.522Z,98169.47
2023-04-17T16:45:22.262Z,98172.94
2023-04-17T16:47:49.810Z,98166.31
2023-04-17T16:50:18.867Z,98166.31
2023-04-17T16:52:46.346Z,98172.91
2023-04-17T16:55:13.828Z,98171.56
2023-04-17T16:57:43.700Z,98163.78
2023-04-17T17:00:12.572Z,98173.09
2023-04-17T17:02:40.188Z,98178.22
2023-04-17T17:05:08.568Z,98177.44
2023-04-17T17:07:37.402Z,98176.59
2023-04-17T17:10:05.626Z,98183.56
2023-04-17T17:12:33.151Z,98182.59
2023-04-17T17:15:00.735Z,98191.19
2023-04-17T17:17:28.219Z,98184.91
2023-04-17T17:19:56.003Z,98179.75
2023-04-17T17:22:23.500Z,98194.03
2023-04-17T17:24:52.381Z,98179.75
2023-04-17T17:27:19.846Z,98185.88
2023-04-17T17:29:47.341Z,98185.06
2023-04-17T17:32:16.385Z,98188.22
2023-04-17T17:34:44.011Z,98182.91
2023-04-17T17:37:11.828Z,98183.56
2023-04-17T17:39:39.481Z,98195.69
2023-04-17T17:42:09.376Z,98192.19
2023-04-17T17:44:37.739Z,98198.19
2023-04-17T17:47:07.524Z,98201.34
2023-04-17T17:49:35.528Z,98197.69
2023-04-17T17:52:03.051Z,98191.53
2023-04-17T17:54:30.551Z,98196.19
2023-04-17T17:56:58.070Z,98191.84
2023-04-17T17:59:26.881Z,98194.34
2023-04-17T18:01:54.477Z,98195.16
2023-04-17T18:04:22.395Z,98194.00
2023-04-17T18:06:50.093Z,98196.00
2023-04-17T18:09:17.556Z,98192.00
2023-04-17T18:11:45.179Z,98197.13
2023-04-17T18:14:12.807Z,98190.47
2023-04-17T18:16:42.906Z,98191.59
2023-04-17T18:19:10.520Z,98192.41
2023-04-17T18:21:38.012Z,98189.75
2023-04-17T18:24:06.690Z,98192.41
2023-04-17T18:26:34.363Z,98196.22
2023-04-17T18:29:01.951Z,98196.34
2023-04-17T18:31:29.661Z,98201.63
2023-04-17T18:34:02.128Z,98203.78
2023-04-17T18:36:30.762Z,98209.03
2023-04-17T18:38:58.312Z,98209.41
2023-04-17T18:41:26.887Z,98205.94
2023-04-17T18:43:54.366Z,98207.75
2023-04-17T18:46:22.862Z,98221.69
2023-04-17T18:48:50.349Z,98218.50
2023-04-17T18:51:19.517Z,98212.75
2023-04-17T18:53:48.242Z,98212.38
2023-04-17T18:56:15.892Z,98217.22
2023-04-17T18:58:43.710Z,98224.84
2023-04-17T19:01:11.297Z,98221.50
2023-04-17T19:03:38.936Z,98218.22
2023-04-17T19:06:07.598Z,98219.88
2023-04-17T19:08:36.429Z,98216.84
2023-04-17T19:11:04.290Z,98228.31
2023-04-17T19:13:32.028Z,98223.16
2023-04-17T19:15:59.551Z,98219.81
2023-04-17T19:18:27.108Z,98219.31
2023-04-17T19:20:54.616Z,98213.31
2023-04-17T19:23:22.127Z,98216.09
2023-04-17T19:25:54.812Z,98213.72
2023-04-17T19:28:22.691Z,98212.06
2023-04-17T19:30:50.439Z,98207.25
2023-04-17T19:33:18.627Z,98211.34
2023-04-17T19:35:46.214Z,98213.00
2023-04-17T19:38:16.220Z,98213.00
2023-04-17T19:40:47.612Z,98208.97
2023-04-17T19:43:16.442Z,98220.06
2023-04-17T19:45:44.080Z,98218.25
2023-04-17T19:48:11.630Z,98220.38
2023-04-17T19:50:39.120Z,98209.88
2023-04-17T19:53:06.911Z,98215.84
2023-04-17T19:55:34.740Z,98215.38
2023-04-17T19:58:02.245Z,98218.66
2023-04-17T20:00:31.072Z,98219.53
2023-04-17T20:02:58.666Z,98210.25
2023-04-17T20:05:27.360Z,98219.03
2023-04-17T20:07:55.418Z,98219.88
2023-04-17T20:10:23.121Z,98215.06
2023-04-17T20:12:50.645Z,98214.72
2023-04-17T20:15:19.792Z,98209.91
2023-04-17T20:17:48.661Z,98211.72
2023-04-17T20:20:16.282Z,98212.41
2023-04-17T20:22:43.779Z,98220.94
2023-04-17T20:25:11.301Z,98220.03
2023-04-17T20:27:38.843Z,98218.53
2023-04-17T20:30:07.347Z,98222.41
2023-04-17T20:32:34.853Z,98221.03
2023-04-17T20:35:04.379Z,98223.41
2023-04-17T20:37:31.895Z,98218.25
2023-04-17T20:39:59.368Z,98224.38
2023-04-17T20:42:26.858Z,98217.41
2023-04-17T20:44:55.216Z,98229.41
2023-04-17T20:47:22.755Z,98224.66
2023-04-17T20:49:50.236Z,98228.59
2023-04-17T20:52:19.063Z,98225.28
2023-04-17T20:54:46.552Z,98228.91
2023-04-17T20:57:14.103Z,98230.56
2023-04-17T20:59:41.581Z,98228.38
2023-04-17T21:02:09.290Z,98227.38
2023-04-17T21:04:37.010Z,98235.47
2023-04-17T21:07:04.666Z,98229.50
2023-04-17T21:09:34.318Z,98229.63
2023-04-17T21:12:02.446Z,98230.66
2023-04-17T21:14:30.426Z,98227.44
2023-04-17T21:16:58.537Z,98227.16
2023-04-17T21:19:27.233Z,98225.53
2023-04-17T21:21:55.162Z,98223.03
2023-04-17T21:24:22.859Z,98231.81
2023-04-17T21:26:53.280Z,98235.38
2023-04-17T21:29:20.846Z,98236.13
2023-04-17T21:31:48.373Z,98230.97
2023-04-17T21:34:15.962Z,98231.78
2023-04-17T21:36:43.518Z,98235.41
2023-04-17T21:39:11.198Z,98238.91
2023-04-17T21:41:38.773Z,98236.75
2023-04-17T21:44:07.600Z,98243.28
2023-04-17T21:46:35.096Z,98241.22
2023-04-17T21:49:02.648Z,98228.81
2023-04-17T21:51:30.109Z,98228.31
2023-04-17T21:53:57.579Z,98232.72
2023-04-17T21:56:25.148Z,98238.34
2023-04-17T21:58:52.644Z,98235.28
2023-04-17T22:01:21.501Z,98242.94
2023-04-17T22:03:49.029Z,98235.00
2023-04-17T22:06:16.576Z,98237.31
2023-04-17T22:08:44.265Z,98244.22
2023-04-17T22:11:11.788Z,98242.50
2023-04-17T22:13:39.274Z,98241.16
2023-04-17T22:16:07.389Z,98241.25
2023-04-17T22:18:36.240Z,98240.16
2023-04-17T22:21:04.149Z,98242.50
2023-04-17T22:23:31.852Z,98238.19
2023-04-17T22:25:59.366Z,98239.97
2023-04-17T22:28:29.790Z,98233.41
2023-04-17T22:30:57.421Z,98237.47
2023-04-17T22:33:26.066Z,98217.97
2023-04-17T22:35:54.912Z,98219.78
2023-04-17T22:38:22.495Z,98231.94
2023-04-17T22:40:49.991Z,98240.84
2023-04-17T22:43:17.546Z,98238.75
2023-04-17T22:45:45.048Z,98238.63
2023-04-17T22:48:12.578Z,98251.00
2023-04-17T22:50:40.070Z,98252.78
2023-04-17T22:53:09.163Z,98256.13
2023-04-17T22:55:37.139Z,98250.28
2023-04-17T22:58:07.517Z,98260.72
2023-04-17T23:00:35.138Z,98253.63
2023-04-17T23:03:02.756Z,98253.47
2023-04-17T23:05:30.365Z,98253.84
2023-04-17T23:07:57.854Z,98260.81
2023-04-17T23:10:26.718Z,98255.84
2023-04-17T23:12:54.228Z,98255.56
2023-04-17T23:15:22.034Z,98243.72
2023-04-17T23:17:49.543Z,98245.78
2023-04-17T23:20:17.390Z,98252.97
2023-04-17T23:22:44.924Z,98245.19
2023-04-17T23:25:12.507Z,98243.22
2023-04-17T23:27:41.392Z,98236.84
2023-04-17T23:30:09.630Z,98239.22
2023-04-17T23:32:37.164Z,98231.22
2023-04-17T23:35:05.227Z,98232.56
2023-04-17T23:37:32.727Z,98230.25
2023-04-17T23:40:01.249Z,98224.78
2023-04-17T23:42:28.719Z,98225.78
2023-04-17T23:44:57.847Z,98224.63
2023-04-17T23:47:25.385Z,98228.13
2023-04-17T23:49:52.902Z,98229.59
2023-04-17T23:52:20.373Z,98228.50
2023-04-17T23:54:47.991Z,98222.59
2023-04-17T23:57:15.555Z,98228.13
2023-04-17T23:59:43.101Z,98219.19
